sensor_id;sensor_type;location;lat;lon;timestamp;P1;durP1;ratioP1;P2;durP2;ratioP2
77409;SDS011;66481;51.332;22.804;2023-02-24T00:02:03;20.15;;;10.93;;
77409;SDS011;66481;51.332;22.804;2023-02-24T00:06:05;19.17;;;11.25;;
77409;SDS011;66481;51.332;22.804;2023-02-24T00:10:11;18.17;;;10.73;;
77409;SDS011;66481;51.332;22.804;2023-02-24T00:14:19;19.55;;;10.13;;
77409;SDS011;66481;51.332;22.804;2023-02-24T00:18:20;16.83;;;9.40;;
77409;SDS011;66481;51.332;22.804;2023-02-24T00:22:22;18.83;;;11.35;;
77409;SDS011;66481;51.332;22.804;2023-02-24T00:26:23;23.30;;;10.65;;
77409;SDS011;66481;51.332;22.804;2023-02-24T00:30:25;16.70;;;9.60;;
77409;SDS011;66481;51.332;22.804;2023-02-24T00:34:27;18.95;;;10.82;;
77409;SDS011;66481;51.332;22.804;2023-02-24T00:38:30;17.77;;;9.68;;
77409;SDS011;66481;51.332;22.804;2023-02-24T00:42:35;16.85;;;10.23;;
77409;SDS011;66481;51.332;22.804;2023-02-24T00:46:40;15.82;;;7.97;;
77409;SDS011;66481;51.332;22.804;2023-02-24T00:50:45;19.27;;;11.23;;
77409;SDS011;66481;51.332;22.804;2023-02-24T00:54:46;17.80;;;11.05;;
77409;SDS011;66481;51.332;22.804;2023-02-24T00:58:48;19.10;;;9.77;;
77409;SDS011;66481;51.332;22.804;2023-02-24T01:02:50;22.55;;;10.65;;
77409;SDS011;66481;51.332;22.804;2023-02-24T01:06:52;19.35;;;11.73;;
77409;SDS011;66481;51.332;22.804;2023-02-24T01:10:59;18.45;;;10.73;;
77409;SDS011;66481;51.332;22.804;2023-02-24T01:15:20;19.55;;;10.30;;
77409;SDS011;66481;51.332;22.804;2023-02-24T01:19:23;20.05;;;11.90;;
77409;SDS011;66481;51.332;22.804;2023-02-24T01:23:30;20.13;;;10.77;;
77409;SDS011;66481;51.332;22.804;2023-02-24T01:27:31;19.92;;;12.15;;
77409;SDS011;66481;51.332;22.804;2023-02-24T01:31:32;19.90;;;12.43;;
77409;SDS011;66481;51.332;22.804;2023-02-24T01:35:33;20.67;;;10.90;;
77409;SDS011;66481;51.332;22.804;2023-02-24T01:39:34;19.30;;;11.55;;
77409;SDS011;66481;51.332;22.804;2023-02-24T01:48:16;19.02;;;10.77;;
77409;SDS011;66481;51.332;22.804;2023-02-24T01:52:20;20.40;;;9.65;;
77409;SDS011;66481;51.332;22.804;2023-02-24T01:56:24;22.88;;;11.07;;
77409;SDS011;66481;51.332;22.804;2023-02-24T02:00:29;28.45;;;12.38;;
77409;SDS011;66481;51.332;22.804;2023-02-24T02:04:52;20.55;;;11.63;;
77409;SDS011;66481;51.332;22.804;2023-02-24T02:08:59;23.38;;;13.05;;
77409;SDS011;66481;51.332;22.804;2023-02-24T02:13:01;23.70;;;12.55;;
77409;SDS011;66481;51.332;22.804;2023-02-24T02:34:34;22.73;;;13.43;;
77409;SDS011;66481;51.332;22.804;2023-02-24T02:38:54;27.92;;;13.98;;
77409;SDS011;66481;51.332;22.804;2023-02-24T02:47:43;27.15;;;13.05;;
77409;SDS011;66481;51.332;22.804;2023-02-24T02:51:55;21.67;;;11.90;;
77409;SDS011;66481;51.332;22.804;2023-02-24T03:00:31;19.88;;;11.52;;
77409;SDS011;66481;51.332;22.804;2023-02-24T03:04:41;25.15;;;12.70;;
77409;SDS011;66481;51.332;22.804;2023-02-24T03:08:52;22.23;;;11.35;;
77409;SDS011;66481;51.332;22.804;2023-02-24T03:13:01;22.10;;;11.50;;
77409;SDS011;66481;51.332;22.804;2023-02-24T03:17:10;24.45;;;10.60;;
77409;SDS011;66481;51.332;22.804;2023-02-24T03:21:18;26.27;;;10.82;;
77409;SDS011;66481;51.332;22.804;2023-02-24T03:25:37;18.30;;;10.68;;
77409;SDS011;66481;51.332;22.804;2023-02-24T03:29:46;20.65;;;11.15;;
77409;SDS011;66481;51.332;22.804;2023-02-24T03:34:03;22.50;;;12.13;;
77409;SDS011;66481;51.332;22.804;2023-02-24T03:38:06;21.52;;;11.48;;
77409;SDS011;66481;51.332;22.804;2023-02-24T03:42:11;22.95;;;12.15;;
77409;SDS011;66481;51.332;22.804;2023-02-24T03:46:17;19.98;;;11.65;;
77409;SDS011;66481;51.332;22.804;2023-02-24T03:50:20;20.08;;;11.00;;
77409;SDS011;66481;51.332;22.804;2023-02-24T03:54:32;23.08;;;14.07;;
77409;SDS011;66481;51.332;22.804;2023-02-24T04:03:27;22.63;;;11.07;;
77409;SDS011;66481;51.332;22.804;2023-02-24T04:07:42;21.10;;;10.88;;
77409;SDS011;66481;51.332;22.804;2023-02-24T04:11:57;22.15;;;11.13;;
77409;SDS011;66481;51.332;22.804;2023-02-24T04:16:20;21.30;;;11.50;;
77409;SDS011;66481;51.332;22.804;2023-02-24T04:20:29;22.67;;;10.30;;
77409;SDS011;66481;51.332;22.804;2023-02-24T04:24:33;26.38;;;12.25;;
77409;SDS011;66481;51.332;22.804;2023-02-24T04:28:35;19.98;;;10.95;;
77409;SDS011;66481;51.332;22.804;2023-02-24T04:32:36;20.17;;;12.10;;
77409;SDS011;66481;51.332;22.804;2023-02-24T04:36:43;26.35;;;11.80;;
77409;SDS011;66481;51.332;22.804;2023-02-24T04:40:49;22.27;;;10.80;;
77409;SDS011;66481;51.332;22.804;2023-02-24T04:44:50;17.48;;;9.68;;
77409;SDS011;66481;51.332;22.804;2023-02-24T04:48:53;22.02;;;10.82;;
77409;SDS011;66481;51.332;22.804;2023-02-24T04:52:58;15.52;;;10.05;;
77409;SDS011;66481;51.332;22.804;2023-02-24T04:57:06;20.88;;;10.98;;
77409;SDS011;66481;51.332;22.804;2023-02-24T05:01:10;17.50;;;9.43;;
77409;SDS011;66481;51.332;22.804;2023-02-24T05:05:11;18.48;;;10.13;;
77409;SDS011;66481;51.332;22.804;2023-02-24T05:09:13;18.42;;;9.27;;
77409;SDS011;66481;51.332;22.804;2023-02-24T05:13:21;22.95;;;11.07;;
77409;SDS011;66481;51.332;22.804;2023-02-24T05:17:26;19.15;;;9.40;;
77409;SDS011;66481;51.332;22.804;2023-02-24T05:21:28;19.63;;;10.38;;
77409;SDS011;66481;51.332;22.804;2023-02-24T05:25:36;24.23;;;11.43;;
77409;SDS011;66481;51.332;22.804;2023-02-24T05:29:37;18.23;;;10.75;;
77409;SDS011;66481;51.332;22.804;2023-02-24T05:33:40;19.40;;;9.70;;
77409;SDS011;66481;51.332;22.804;2023-02-24T05:37:43;22.50;;;10.40;;
77409;SDS011;66481;51.332;22.804;2023-02-24T05:41:45;20.85;;;10.45;;
77409;SDS011;66481;51.332;22.804;2023-02-24T05:45:48;23.17;;;10.40;;
77409;SDS011;66481;51.332;22.804;2023-02-24T05:49:49;16.17;;;8.95;;
77409;SDS011;66481;51.332;22.804;2023-02-24T05:53:53;18.42;;;9.85;;
77409;SDS011;66481;51.332;22.804;2023-02-24T05:57:54;18.45;;;10.07;;
77409;SDS011;66481;51.332;22.804;2023-02-24T06:01:56;18.13;;;9.48;;
77409;SDS011;66481;51.332;22.804;2023-02-24T06:06:00;18.67;;;10.02;;
77409;SDS011;66481;51.332;22.804;2023-02-24T06:10:09;17.73;;;10.23;;
77409;SDS011;66481;51.332;22.804;2023-02-24T06:14:11;19.73;;;9.25;;
77409;SDS011;66481;51.332;22.804;2023-02-24T06:18:12;19.05;;;10.02;;
77409;SDS011;66481;51.332;22.804;2023-02-24T06:22:14;18.52;;;9.80;;
77409;SDS011;66481;51.332;22.804;2023-02-24T06:26:16;16.00;;;9.00;;
77409;SDS011;66481;51.332;22.804;2023-02-24T06:30:19;19.33;;;10.45;;
77409;SDS011;66481;51.332;22.804;2023-02-24T06:34:24;20.50;;;10.30;;
77409;SDS011;66481;51.332;22.804;2023-02-24T06:38:27;19.33;;;10.57;;
77409;SDS011;66481;51.332;22.804;2023-02-24T06:42:28;16.95;;;10.10;;
77409;SDS011;66481;51.332;22.804;2023-02-24T06:46:29;21.08;;;10.25;;
77409;SDS011;66481;51.332;22.804;2023-02-24T06:50:31;22.77;;;10.80;;
77409;SDS011;66481;51.332;22.804;2023-02-24T06:54:33;22.67;;;10.63;;
77409;SDS011;66481;51.332;22.804;2023-02-24T06:58:36;19.15;;;9.88;;
77409;SDS011;66481;51.332;22.804;2023-02-24T07:02:39;19.48;;;10.77;;
77409;SDS011;66481;51.332;22.804;2023-02-24T07:06:42;18.23;;;9.23;;
77409;SDS011;66481;51.332;22.804;2023-02-24T07:10:44;16.67;;;9.38;;
77409;SDS011;66481;51.332;22.804;2023-02-24T07:14:50;18.17;;;8.60;;
77409;SDS011;66481;51.332;22.804;2023-02-24T07:18:52;15.10;;;9.15;;
77409;SDS011;66481;51.332;22.804;2023-02-24T07:27:00;14.13;;;8.35;;
77409;SDS011;66481;51.332;22.804;2023-02-24T07:31:05;14.80;;;9.05;;
77409;SDS011;66481;51.332;22.804;2023-02-24T07:35:11;17.98;;;8.90;;
77409;SDS011;66481;51.332;22.804;2023-02-24T07:39:12;20.13;;;8.93;;
77409;SDS011;66481;51.332;22.804;2023-02-24T07:43:13;16.08;;;9.32;;
77409;SDS011;66481;51.332;22.804;2023-02-24T07:47:15;15.60;;;8.98;;
77409;SDS011;66481;51.332;22.804;2023-02-24T07:51:17;19.17;;;9.25;;
77409;SDS011;66481;51.332;22.804;2023-02-24T07:55:21;19.40;;;10.23;;
77409;SDS011;66481;51.332;22.804;2023-02-24T08:03:28;17.25;;;9.30;;
77409;SDS011;66481;51.332;22.804;2023-02-24T08:07:29;18.13;;;9.50;;
77409;SDS011;66481;51.332;22.804;2023-02-24T08:11:33;21.08;;;11.00;;
77409;SDS011;66481;51.332;22.804;2023-02-24T08:15:42;16.60;;;8.85;;
77409;SDS011;66481;51.332;22.804;2023-02-24T08:19:56;17.23;;;9.85;;
77409;SDS011;66481;51.332;22.804;2023-02-24T08:24:22;18.75;;;10.95;;
77409;SDS011;66481;51.332;22.804;2023-02-24T08:28:29;19.08;;;10.70;;
77409;SDS011;66481;51.332;22.804;2023-02-24T08:32:33;18.10;;;10.40;;
77409;SDS011;66481;51.332;22.804;2023-02-24T08:36:42;17.83;;;10.70;;
77409;SDS011;66481;51.332;22.804;2023-02-24T08:40:55;18.52;;;10.60;;
77409;SDS011;66481;51.332;22.804;2023-02-24T08:45:04;17.13;;;9.40;;
77409;SDS011;66481;51.332;22.804;2023-02-24T08:49:07;16.27;;;8.82;;
77409;SDS011;66481;51.332;22.804;2023-02-24T08:58:07;17.15;;;11.05;;
77409;SDS011;66481;51.332;22.804;2023-02-24T09:02:18;17.83;;;9.77;;
77409;SDS011;66481;51.332;22.804;2023-02-24T09:11:43;16.80;;;10.70;;
77409;SDS011;66481;51.332;22.804;2023-02-24T09:15:46;17.10;;;9.93;;
77409;SDS011;66481;51.332;22.804;2023-02-24T09:19:49;19.60;;;10.45;;
77409;SDS011;66481;51.332;22.804;2023-02-24T09:23:49;18.65;;;9.43;;
77409;SDS011;66481;51.332;22.804;2023-02-24T09:27:53;19.15;;;10.80;;
77409;SDS011;66481;51.332;22.804;2023-02-24T09:32:07;16.20;;;9.30;;
77409;SDS011;66481;51.332;22.804;2023-02-24T09:36:14;20.90;;;10.50;;
77409;SDS011;66481;51.332;22.804;2023-02-24T09:40:20;19.70;;;10.68;;
77409;SDS011;66481;51.332;22.804;2023-02-24T09:44:31;18.23;;;10.48;;
77409;SDS011;66481;51.332;22.804;2023-02-24T09:48:55;23.42;;;11.07;;
77409;SDS011;66481;51.332;22.804;2023-02-24T09:53:07;19.02;;;10.80;;
77409;SDS011;66481;51.332;22.804;2023-02-24T09:57:16;19.35;;;11.32;;
77409;SDS011;66481;51.332;22.804;2023-02-24T10:05:47;20.58;;;10.15;;
77409;SDS011;66481;51.332;22.804;2023-02-24T10:10:13;25.20;;;11.68;;
77409;SDS011;66481;51.332;22.804;2023-02-24T10:15:21;19.48;;;10.50;;
77409;SDS011;66481;51.332;22.804;2023-02-24T10:19:23;25.50;;;12.95;;
77409;SDS011;66481;51.332;22.804;2023-02-24T10:23:31;22.50;;;11.50;;
77409;SDS011;66481;51.332;22.804;2023-02-24T10:36:51;26.10;;;14.27;;
77409;SDS011;66481;51.332;22.804;2023-02-24T10:40:53;21.13;;;12.20;;
77409;SDS011;66481;51.332;22.804;2023-02-24T10:45:09;22.65;;;12.82;;
77409;SDS011;66481;51.332;22.804;2023-02-24T10:49:17;21.75;;;12.48;;
77409;SDS011;66481;51.332;22.804;2023-02-24T10:53:21;19.05;;;10.15;;
77409;SDS011;66481;51.332;22.804;2023-02-24T10:57:29;17.02;;;10.48;;
77409;SDS011;66481;51.332;22.804;2023-02-24T11:01:37;24.88;;;12.90;;
77409;SDS011;66481;51.332;22.804;2023-02-24T11:05:55;18.33;;;9.27;;
77409;SDS011;66481;51.332;22.804;2023-02-24T11:14:13;20.65;;;12.70;;
77409;SDS011;66481;51.332;22.804;2023-02-24T11:18:35;23.55;;;12.38;;
77409;SDS011;66481;51.332;22.804;2023-02-24T11:22:39;22.50;;;12.48;;
77409;SDS011;66481;51.332;22.804;2023-02-24T11:26:43;21.88;;;13.25;;
77409;SDS011;66481;51.332;22.804;2023-02-24T11:30:55;17.15;;;10.82;;
77409;SDS011;66481;51.332;22.804;2023-02-24T11:43:23;17.27;;;10.27;;
77409;SDS011;66481;51.332;22.804;2023-02-24T11:47:30;18.85;;;11.20;;
77409;SDS011;66481;51.332;22.804;2023-02-24T11:51:42;20.00;;;10.98;;
77409;SDS011;66481;51.332;22.804;2023-02-24T12:01:11;28.15;;;14.10;;
77409;SDS011;66481;51.332;22.804;2023-02-24T12:05:17;23.80;;;12.23;;
77409;SDS011;66481;51.332;22.804;2023-02-24T12:09:25;21.50;;;12.25;;
77409;SDS011;66481;51.332;22.804;2023-02-24T12:13:35;24.58;;;12.73;;
77409;SDS011;66481;51.332;22.804;2023-02-24T12:22:06;21.25;;;10.95;;
77409;SDS011;66481;51.332;22.804;2023-02-24T12:39:20;21.80;;;12.77;;
77409;SDS011;66481;51.332;22.804;2023-02-24T12:43:41;19.17;;;10.80;;
77409;SDS011;66481;51.332;22.804;2023-02-24T12:56:46;24.65;;;13.55;;
77409;SDS011;66481;51.332;22.804;2023-02-24T13:05:26;28.83;;;16.52;;
77409;SDS011;66481;51.332;22.804;2023-02-24T13:18:02;25.67;;;14.57;;
77409;SDS011;66481;51.332;22.804;2023-02-24T13:22:07;27.60;;;15.65;;
77409;SDS011;66481;51.332;22.804;2023-02-24T13:26:22;28.13;;;15.55;;
77409;SDS011;66481;51.332;22.804;2023-02-24T13:30:38;28.95;;;15.38;;
77409;SDS011;66481;51.332;22.804;2023-02-24T13:44:23;27.90;;;15.70;;
77409;SDS011;66481;51.332;22.804;2023-02-24T14:01:43;28.50;;;16.88;;
77409;SDS011;66481;51.332;22.804;2023-02-24T14:06:24;28.80;;;15.18;;
77409;SDS011;66481;51.332;22.804;2023-02-24T14:10:27;27.75;;;15.15;;
77409;SDS011;66481;51.332;22.804;2023-02-24T14:14:29;33.17;;;18.63;;
77409;SDS011;66481;51.332;22.804;2023-02-24T14:18:31;32.92;;;18.73;;
77409;SDS011;66481;51.332;22.804;2023-02-24T14:22:32;32.88;;;17.80;;
77409;SDS011;66481;51.332;22.804;2023-02-24T14:26:40;30.33;;;18.33;;
77409;SDS011;66481;51.332;22.804;2023-02-24T14:30:51;34.63;;;18.48;;
77409;SDS011;66481;51.332;22.804;2023-02-24T14:34:54;36.20;;;21.25;;
77409;SDS011;66481;51.332;22.804;2023-02-24T14:38:59;34.35;;;17.75;;
77409;SDS011;66481;51.332;22.804;2023-02-24T14:43:14;47.78;;;25.90;;
77409;SDS011;66481;51.332;22.804;2023-02-24T14:47:17;34.58;;;18.90;;
77409;SDS011;66481;51.332;22.804;2023-02-24T14:55:34;39.38;;;19.67;;
77409;SDS011;66481;51.332;22.804;2023-02-24T14:59:37;42.28;;;22.42;;
77409;SDS011;66481;51.332;22.804;2023-02-24T15:03:47;43.63;;;20.85;;
77409;SDS011;66481;51.332;22.804;2023-02-24T15:07:52;42.15;;;21.13;;
77409;SDS011;66481;51.332;22.804;2023-02-24T15:11:54;45.85;;;22.83;;
77409;SDS011;66481;51.332;22.804;2023-02-24T15:16:01;45.65;;;22.58;;
77409;SDS011;66481;51.332;22.804;2023-02-24T15:20:29;44.03;;;22.95;;
77409;SDS011;66481;51.332;22.804;2023-02-24T15:24:32;43.25;;;22.63;;
77409;SDS011;66481;51.332;22.804;2023-02-24T15:28:35;42.45;;;23.90;;
77409;SDS011;66481;51.332;22.804;2023-02-24T15:32:38;45.28;;;23.20;;
77409;SDS011;66481;51.332;22.804;2023-02-24T15:36:39;43.25;;;22.23;;
77409;SDS011;66481;51.332;22.804;2023-02-24T15:40:41;40.80;;;21.50;;
77409;SDS011;66481;51.332;22.804;2023-02-24T15:44:55;40.03;;;20.52;;
77409;SDS011;66481;51.332;22.804;2023-02-24T15:49:05;43.45;;;22.23;;
77409;SDS011;66481;51.332;22.804;2023-02-24T15:53:06;41.83;;;21.98;;
77409;SDS011;66481;51.332;22.804;2023-02-24T15:57:13;50.25;;;24.25;;
77409;SDS011;66481;51.332;22.804;2023-02-24T16:01:16;42.58;;;24.05;;
77409;SDS011;66481;51.332;22.804;2023-02-24T16:05:18;45.42;;;21.80;;
77409;SDS011;66481;51.332;22.804;2023-02-24T16:09:22;45.42;;;22.90;;
77409;SDS011;66481;51.332;22.804;2023-02-24T16:13:37;46.90;;;21.33;;
77409;SDS011;66481;51.332;22.804;2023-02-24T16:17:39;41.50;;;21.85;;
77409;SDS011;66481;51.332;22.804;2023-02-24T16:27:01;42.85;;;22.83;;
77409;SDS011;66481;51.332;22.804;2023-02-24T16:31:02;44.05;;;24.38;;
77409;SDS011;66481;51.332;22.804;2023-02-24T16:35:04;52.30;;;29.20;;
77409;SDS011;66481;51.332;22.804;2023-02-24T16:39:11;63.67;;;34.25;;
77409;SDS011;66481;51.332;22.804;2023-02-24T16:43:14;62.92;;;34.22;;
77409;SDS011;66481;51.332;22.804;2023-02-24T16:47:18;70.97;;;41.17;;
77409;SDS011;66481;51.332;22.804;2023-02-24T16:51:23;71.10;;;37.33;;
77409;SDS011;66481;51.332;22.804;2023-02-24T16:55:25;64.65;;;33.33;;
77409;SDS011;66481;51.332;22.804;2023-02-24T16:59:27;59.55;;;32.03;;
77409;SDS011;66481;51.332;22.804;2023-02-24T17:03:30;56.30;;;28.40;;
77409;SDS011;66481;51.332;22.804;2023-02-24T17:07:42;56.58;;;31.45;;
77409;SDS011;66481;51.332;22.804;2023-02-24T17:11:44;65.60;;;35.45;;
77409;SDS011;66481;51.332;22.804;2023-02-24T17:15:45;56.35;;;28.90;;
77409;SDS011;66481;51.332;22.804;2023-02-24T17:19:49;59.42;;;29.88;;
77409;SDS011;66481;51.332;22.804;2023-02-24T17:23:51;63.55;;;33.90;;
77409;SDS011;66481;51.332;22.804;2023-02-24T17:27:52;64.80;;;31.65;;
77409;SDS011;66481;51.332;22.804;2023-02-24T17:31:55;66.05;;;35.42;;
77409;SDS011;66481;51.332;22.804;2023-02-24T17:35:57;68.55;;;36.72;;
77409;SDS011;66481;51.332;22.804;2023-02-24T17:39:58;65.20;;;34.58;;
77409;SDS011;66481;51.332;22.804;2023-02-24T17:44:00;69.47;;;34.58;;
77409;SDS011;66481;51.332;22.804;2023-02-24T17:48:03;66.43;;;34.15;;
77409;SDS011;66481;51.332;22.804;2023-02-24T17:52:06;58.22;;;33.20;;
77409;SDS011;66481;51.332;22.804;2023-02-24T17:56:08;63.45;;;33.72;;
77409;SDS011;66481;51.332;22.804;2023-02-24T18:00:09;59.35;;;30.60;;
77409;SDS011;66481;51.332;22.804;2023-02-24T18:04:12;61.58;;;35.05;;
77409;SDS011;66481;51.332;22.804;2023-02-24T18:08:16;58.78;;;28.92;;
77409;SDS011;66481;51.332;22.804;2023-02-24T18:12:17;49.53;;;26.27;;
77409;SDS011;66481;51.332;22.804;2023-02-24T18:16:20;46.72;;;28.38;;
77409;SDS011;66481;51.332;22.804;2023-02-24T18:20:22;46.55;;;26.15;;
77409;SDS011;66481;51.332;22.804;2023-02-24T18:24:24;45.33;;;23.45;;
77409;SDS011;66481;51.332;22.804;2023-02-24T18:28:26;43.53;;;23.50;;
77409;SDS011;66481;51.332;22.804;2023-02-24T18:32:31;36.90;;;24.15;;
77409;SDS011;66481;51.332;22.804;2023-02-24T18:36:34;41.92;;;22.67;;
77409;SDS011;66481;51.332;22.804;2023-02-24T18:40:36;46.22;;;24.10;;
77409;SDS011;66481;51.332;22.804;2023-02-24T18:44:37;48.90;;;26.08;;
77409;SDS011;66481;51.332;22.804;2023-02-24T18:48:39;50.50;;;25.48;;
77409;SDS011;66481;51.332;22.804;2023-02-24T18:52:44;44.42;;;23.08;;
77409;SDS011;66481;51.332;22.804;2023-02-24T18:56:46;42.20;;;23.33;;
77409;SDS011;66481;51.332;22.804;2023-02-24T19:00:47;38.90;;;21.60;;
77409;SDS011;66481;51.332;22.804;2023-02-24T19:04:49;45.78;;;24.58;;
77409;SDS011;66481;51.332;22.804;2023-02-24T19:08:57;41.13;;;23.75;;
77409;SDS011;66481;51.332;22.804;2023-02-24T19:13:01;38.55;;;19.48;;
77409;SDS011;66481;51.332;22.804;2023-02-24T19:17:03;40.88;;;21.73;;
77409;SDS011;66481;51.332;22.804;2023-02-24T19:21:05;37.88;;;20.42;;
77409;SDS011;66481;51.332;22.804;2023-02-24T19:25:08;35.33;;;18.40;;
77409;SDS011;66481;51.332;22.804;2023-02-24T19:29:10;28.00;;;15.35;;
77409;SDS011;66481;51.332;22.804;2023-02-24T19:33:12;32.72;;;17.92;;
77409;SDS011;66481;51.332;22.804;2023-02-24T19:37:13;35.67;;;19.02;;
77409;SDS011;66481;51.332;22.804;2023-02-24T19:41:15;32.45;;;17.77;;
77409;SDS011;66481;51.332;22.804;2023-02-24T19:45:17;34.03;;;18.20;;
77409;SDS011;66481;51.332;22.804;2023-02-24T19:49:19;32.60;;;17.42;;
77409;SDS011;66481;51.332;22.804;2023-02-24T19:53:21;37.83;;;19.15;;
77409;SDS011;66481;51.332;22.804;2023-02-24T19:57:22;34.17;;;18.23;;
77409;SDS011;66481;51.332;22.804;2023-02-24T20:01:26;34.08;;;19.27;;
77409;SDS011;66481;51.332;22.804;2023-02-24T20:05:28;36.30;;;19.92;;
77409;SDS011;66481;51.332;22.804;2023-02-24T20:09:30;35.38;;;18.67;;
77409;SDS011;66481;51.332;22.804;2023-02-24T20:13:32;37.05;;;19.98;;
77409;SDS011;66481;51.332;22.804;2023-02-24T20:17:33;35.42;;;20.70;;
77409;SDS011;66481;51.332;22.804;2023-02-24T20:21:35;38.95;;;19.45;;
77409;SDS011;66481;51.332;22.804;2023-02-24T20:25:38;39.90;;;21.02;;
77409;SDS011;66481;51.332;22.804;2023-02-24T20:29:39;41.67;;;20.33;;
77409;SDS011;66481;51.332;22.804;2023-02-24T20:33:41;36.42;;;19.83;;
77409;SDS011;66481;51.332;22.804;2023-02-24T20:37:43;38.40;;;20.48;;
77409;SDS011;66481;51.332;22.804;2023-02-24T20:41:44;46.47;;;21.63;;
77409;SDS011;66481;51.332;22.804;2023-02-24T20:45:48;43.25;;;21.17;;
77409;SDS011;66481;51.332;22.804;2023-02-24T21:00:44;52.72;;;26.40;;
77409;SDS011;66481;51.332;22.804;2023-02-24T21:04:48;43.20;;;22.60;;
77409;SDS011;66481;51.332;22.804;2023-02-24T21:08:50;44.55;;;23.08;;
77409;SDS011;66481;51.332;22.804;2023-02-24T21:12:53;48.65;;;23.48;;
77409;SDS011;66481;51.332;22.804;2023-02-24T21:16:55;45.92;;;25.02;;
77409;SDS011;66481;51.332;22.804;2023-02-24T21:20:58;44.33;;;23.75;;
77409;SDS011;66481;51.332;22.804;2023-02-24T21:25:01;37.42;;;19.65;;
77409;SDS011;66481;51.332;22.804;2023-02-24T21:29:03;42.53;;;23.20;;
77409;SDS011;66481;51.332;22.804;2023-02-24T21:33:08;43.60;;;22.15;;
77409;SDS011;66481;51.332;22.804;2023-02-24T21:37:10;31.98;;;18.23;;
77409;SDS011;66481;51.332;22.804;2023-02-24T21:41:12;47.78;;;22.25;;
77409;SDS011;66481;51.332;22.804;2023-02-24T21:45:14;41.35;;;20.77;;
77409;SDS011;66481;51.332;22.804;2023-02-24T21:49:16;45.25;;;21.48;;
77409;SDS011;66481;51.332;22.804;2023-02-24T21:53:19;42.08;;;21.48;;
77409;SDS011;66481;51.332;22.804;2023-02-24T21:57:23;40.78;;;20.73;;
77409;SDS011;66481;51.332;22.804;2023-02-24T22:01:26;43.47;;;20.63;;
77409;SDS011;66481;51.332;22.804;2023-02-24T22:05:38;38.90;;;19.58;;
77409;SDS011;66481;51.332;22.804;2023-02-24T22:09:40;42.70;;;22.65;;
77409;SDS011;66481;51.332;22.804;2023-02-24T22:13:41;40.60;;;20.83;;
77409;SDS011;66481;51.332;22.804;2023-02-24T22:17:44;43.30;;;22.98;;
77409;SDS011;66481;51.332;22.804;2023-02-24T22:21:46;42.47;;;22.05;;
77409;SDS011;66481;51.332;22.804;2023-02-24T22:25:47;39.75;;;19.75;;
77409;SDS011;66481;51.332;22.804;2023-02-24T22:29:48;49.78;;;25.20;;
77409;SDS011;66481;51.332;22.804;2023-02-24T22:33:51;51.05;;;24.67;;
77409;SDS011;66481;51.332;22.804;2023-02-24T22:37:53;53.33;;;23.90;;
77409;SDS011;66481;51.332;22.804;2023-02-24T22:41:54;41.85;;;21.17;;
77409;SDS011;66481;51.332;22.804;2023-02-24T22:45:59;47.90;;;22.38;;
77409;SDS011;66481;51.332;22.804;2023-02-24T22:50:02;44.90;;;22.25;;
77409;SDS011;66481;51.332;22.804;2023-02-24T22:54:03;43.70;;;21.55;;
77409;SDS011;66481;51.332;22.804;2023-02-24T22:58:04;43.67;;;19.98;;
77409;SDS011;66481;51.332;22.804;2023-02-24T23:02:05;47.53;;;22.20;;
77409;SDS011;66481;51.332;22.804;2023-02-24T23:06:09;43.10;;;20.48;;
77409;SDS011;66481;51.332;22.804;2023-02-24T23:10:12;49.65;;;22.13;;
77409;SDS011;66481;51.332;22.804;2023-02-24T23:14:14;45.28;;;21.95;;
77409;SDS011;66481;51.332;22.804;2023-02-24T23:18:16;41.80;;;20.85;;
77409;SDS011;66481;51.332;22.804;2023-02-24T23:22:16;46.00;;;22.35;;
77409;SDS011;66481;51.332;22.804;2023-02-24T23:26:18;42.90;;;20.45;;
77409;SDS011;66481;51.332;22.804;2023-02-24T23:30:20;39.63;;;19.25;;
77409;SDS011;66481;51.332;22.804;2023-02-24T23:34:21;39.45;;;19.85;;
77409;SDS011;66481;51.332;22.804;2023-02-24T23:38:23;37.20;;;19.30;;
77409;SDS011;66481;51.332;22.804;2023-02-24T23:42:24;40.05;;;16.60;;
77409;SDS011;66481;51.332;22.804;2023-02-24T23:46:25;37.17;;;17.60;;
77409;SDS011;66481;51.332;22.804;2023-02-24T23:50:26;34.92;;;18.02;;
77409;SDS011;66481;51.332;22.804;2023-02-24T23:54:27;36.17;;;17.27;;
77409;SDS011;66481;51.332;22.804;2023-02-24T23:58:28;35.28;;;18.98;;
